Terminal Aerodrome Forecast
Issued by NWS Newport/Morehead City, NC

Home | Current Version | Previous Version | Text Only | Print | Product List | Glossary Off
Versions: 1 2 3 4 5 6 7 8 9 10 11 12 13 14 15 16 17 18

603
FTUS42 KMHX 211720
TAFEWN
TAF
KEWN 211720Z 2118/2218 21009KT P6SM SCT025
     FM220600 20005KT 5SM BR SCT005
     FM220800 20005KT 3SM BR BKN006
     FM220900 VRB04KT 1SM BR BKN005
     FM221300 VRB04KT P6SM BKN015
     FM221400 21007KT P6SM SCT030=

USA.gov is the U.S. government's official web portal to all federal, state and local government web resources and services.